KCHO/CHO METAR and TAF weather

Enter ICAO airport designator
Station Type Date Time Source
KCHO METAR 2021/03/02 12:53 UTC NOAA

KCHO 021253Z 35005KT 10SM CLR 03/M09 A3027 RMK AO2 SLP253 T00281089 $


Station Type Date Time Source
KCHO Decoded METAR 2021/03/02 12:53 UTC NOAA

CHARLOTTESVILLE-ALBEMARLE, VA, United States (KCHO) 38-08N 078-27W 192M
Mar 02, 2021 - 07:53 AM EST / 2021.03.02 1253 UTC
Wind: from the N (350 degrees) at 6 MPH (5 KT):0
Visibility: 10 mile(s):0
Sky conditions: clear
Temperature: 37.0 F (2.8 C)
Dew Point: 16.0 F (-8.9 C)
Relative Humidity: 41%
Pressure (altimeter): 30.27 in. Hg (1025 hPa)
ob: KCHO 021253Z 35005KT 10SM CLR 03/M09 A3027 RMK AO2 SLP253 T00281089
cycle: 13

Station Type Date Time Source
KCHO TAF 2021/03/02 12:22 UTC NOAA

TAF KCHO 021120Z 0212/0312 02004KT P6SM FEW250
FM021500 33006KT P6SM FEW250
FM022000 20005KT P6SM FEW250

Example: see airport list